| time (UTC) | temp F | wind direction | speed MPH | gust MPH | rain 1hr in | rain 24hr in | rain mn in | humidity % | barometer mb |
| 20260507040021 | 55 | 300 | 5.0 | 10.0 | 0.01 | 0.22 | 0.00 | 89 | 1010.6 |
| 20260507034515 | 55 | 305 | 6.0 | 11.0 | 0.03 | 0.22 | 0.22 | 90 | 1010.6 |
| 20260507033012 | 55 | 286 | 8.0 | 12.0 | 0.03 | 0.22 | 0.22 | 90 | 1010.8 |
| 20260507031517 | 56 | 302 | 6.0 | 11.0 | 0.03 | 0.22 | 0.22 | 89 | 1010.5 |
| 20260507030020 | 56 | 312 | 8.0 | 13.0 | 0.02 | 0.21 | 0.21 | 89 | 1010.5 |
| 20260507024514 | 57 | 295 | 7.0 | 11.0 | 0.00 | 0.19 | 0.19 | 91 | 1010.7 |
| 20260507023019 | 58 | 305 | 5.0 | 10.0 | 0.04 | 0.19 | 0.19 | 91 | 1010.1 |
| 20260507021507 | 58 | 310 | 5.0 | 10.0 | 0.05 | 0.19 | 0.19 | 92 | 1010.3 |
| 20260507020006 | 58 | 330 | 4.0 | 8.0 | 0.05 | 0.19 | 0.19 | 92 | 1010.0 |
| 20260507014519 | 59 | 313 | 6.0 | 13.0 | 0.05 | 0.19 | 0.19 | 91 | 1010.2 |
| 20260507013017 | 61 | 283 | 7.0 | 11.0 | 0.01 | 0.15 | 0.15 | 91 | 1010.4 |
| 20260507011514 | 62 | 268 | 4.0 | 10.0 | 0.00 | 0.14 | 0.14 | 91 | 1010.5 |
| 20260507010018 | 62 | 272 | 6.0 | 13.0 | 0.00 | 0.14 | 0.14 | 90 | 1010.2 |
| 20260507004512 | 64 | 267 | 11.0 | 18.0 | 0.00 | 0.14 | 0.14 | 89 | 1010.1 |
| 20260507003014 | 64 | 229 | 1.0 | 2.0 | 0.00 | 0.14 | 0.14 | 90 | 1009.5 |
| 20260507001510 | 64 | 207 | 0.0 | 3.0 | 0.00 | 0.14 | 0.14 | 90 | 1009.4 |
| 20260507000012 | 65 | 204 | 1.0 | 3.0 | 0.00 | 0.14 | 0.14 | 89 | 1009.0 |
| 20260506234510 | 65 | 169 | 1.0 | 4.0 | 0.00 | 0.14 | 0.14 | 89 | 1008.9 |
| 20260506233020 | 65 | 211 | 2.0 | 5.0 | 0.00 | 0.14 | 0.14 | 88 | 1008.9 |
| 20260506231520 | 65 | 206 | 2.0 | 5.0 | 0.00 | 0.14 | 0.14 | 88 | 1008.8 |
| 20260506230020 | 66 | 193 | 2.0 | 6.0 | 0.00 | 0.14 | 0.14 | 87 | 1008.9 |
| 20260506224512 | 66 | 196 | 1.0 | 5.0 | 0.00 | 0.14 | 0.14 | 88 | 1008.8 |
| 20260506223009 | 66 | 159 | 3.0 | 5.0 | 0.00 | 0.14 | 0.14 | 87 | 1008.9 |
| 20260506221507 | 65 | 194 | 0.0 | 2.0 | 0.00 | 0.14 | 0.14 | 88 | 1008.8 |
| 20260506220025 | 65 | 197 | 2.0 | 7.0 | 0.00 | 0.14 | 0.14 | 87 | 1008.9 |
| 20260506214536 | 65 | 192 | 3.0 | 9.0 | 0.00 | 0.14 | 0.14 | 87 | 1008.7 |
| 20260506213016 | 65 | 196 | 3.0 | 8.0 | 0.00 | 0.14 | 0.14 | 87 | 1008.3 |
| 20260506211517 | 66 | 166 | 3.0 | 6.0 | 0.00 | 0.14 | 0.14 | 86 | 1008.1 |
| 20260506210019 | 66 | 163 | 3.0 | 9.0 | 0.00 | 0.14 | 0.14 | 86 | 1008.0 |
| 20260506204515 | 66 | 189 | 4.0 | 9.0 | 0.00 | 0.14 | 0.14 | 87 | 1007.9 |
| 20260506203019 | 66 | 146 | 2.0 | 8.0 | 0.00 | 0.14 | 0.14 | 88 | 1008.0 |
| 20260506201514 | 66 | 168 | 3.0 | 12.0 | 0.00 | 0.14 | 0.14 | 87 | 1007.9 |
| 20260506200008 | 66 | 159 | 5.0 | 10.0 | 0.00 | 0.14 | 0.14 | 88 | 1007.9 |
| 20260506194507 | 65 | 190 | 5.0 | 9.0 | 0.00 | 0.14 | 0.14 | 90 | 1007.8 |
| 20260506193010 | 64 | 160 | 3.0 | 10.0 | 0.00 | 0.14 | 0.14 | 91 | 1008.0 |
| 20260506191512 | 63 | 165 | 4.0 | 10.0 | 0.00 | 0.14 | 0.14 | 91 | 1008.3 |
| 20260506190014 | 63 | 163 | 4.0 | 9.0 | 0.00 | 0.14 | 0.14 | 91 | 1008.3 |
| 20260506183013 | 62 | 183 | 5.0 | 10.0 | 0.00 | 0.14 | 0.14 | 93 | 1008.6 |
| 20260506181515 | 61 | 168 | 5.0 | 11.0 | 0.00 | 0.14 | 0.14 | 94 | 1008.6 |
| 20260506180012 | 61 | 177 | 5.0 | 9.0 | 0.00 | 0.14 | 0.14 | 94 | 1008.8 |
| 20260506173016 | 60 | 179 | 5.0 | 14.0 | 0.00 | 0.14 | 0.14 | 95 | 1008.7 |
| 20260506170011 | 59 | 193 | 7.0 | 14.0 | 0.00 | 0.14 | 0.14 | 95 | 1008.7 |
| 20260506164516 | 59 | 161 | 7.0 | 14.0 | 0.01 | 0.14 | 0.14 | 95 | 1008.7 |
| 20260506163018 | 59 | 123 | 6.0 | 13.0 | 0.01 | 0.14 | 0.14 | 95 | 1008.9 |
| 20260506161515 | 59 | 155 | 7.0 | 15.0 | 0.03 | 0.14 | 0.14 | 95 | 1009.0 |
| 20260506160012 | 59 | 183 | 8.0 | 14.0 | 0.04 | 0.14 | 0.14 | 95 | 1008.9 |
| 20260506154512 | 59 | 142 | 6.0 | 10.0 | 0.05 | 0.13 | 0.13 | 95 | 1008.8 |
| 20260506153020 | 59 | 169 | 6.0 | 11.0 | 0.06 | 0.13 | 0.13 | 95 | 1008.8 |
| 20260506151516 | 59 | 174 | 5.0 | 11.0 | 0.05 | 0.11 | 0.11 | 95 | 1009.5 |
| 20260506150017 | 59 | 159 | 7.0 | 13.0 | 0.04 | 0.10 | 0.10 | 94 | 1009.5 |
| 20260506143019 | 60 | 161 | 5.0 | 11.0 | 0.04 | 0.07 | 0.07 | 94 | 1009.5 |
| 20260506141514 | 59 | 157 | 6.0 | 10.0 | 0.04 | 0.06 | 0.06 | 93 | 1009.2 |
| 20260506140017 | 60 | 159 | 4.0 | 8.0 | 0.05 | 0.06 | 0.06 | 93 | 1009.5 |
| 20260506134521 | 60 | 176 | 4.0 | 7.0 | 0.05 | 0.05 | 0.05 | 92 | 1009.7 |
| 20260506133020 | 60 | 165 | 4.0 | 7.0 | 0.03 | 0.03 | 0.03 | 91 | 1009.8 |
| 20260506131521 | 60 | 153 | 4.0 | 7.0 | 0.02 | 0.02 | 0.02 | 89 | 1009.8 |
| 20260506130020 | 61 | 167 | 3.0 | 8.0 | 0.01 | 0.01 | 0.01 | 87 | 1009.5 |
| 20260506124522 | 61 | 138 | 5.0 | 9.0 | 0.00 | 0.00 | 0.00 | 86 | 1009.7 |
| 20260506123018 | 62 | 171 | 4.0 | 10.0 | 0.00 | 0.00 | 0.00 | 84 | 1009.8 |
| 20260506121515 | 62 | 155 | 6.0 | 10.0 | 0.00 | 0.00 | 0.00 | 81 | 1010.0 |
| 20260506120020 | 63 | 176 | 6.0 | 11.0 | 0.00 | 0.00 | 0.00 | 81 | 1010.0 |
| 20260506114527 | 62 | 163 | 7.0 | 11.0 | 0.00 | 0.00 | 0.00 | 81 | 1009.8 |
| 20260506113035 | 63 | 142 | 5.0 | 13.0 | 0.00 | 0.00 | 0.00 | 81 | 1009.7 |
| 20260506111521 | 63 | 169 | 7.0 | 11.0 | 0.00 | 0.00 | 0.00 | 79 | 1009.5 |
| 20260506110008 | 63 | 201 | 8.0 | 13.0 | 0.00 | 0.00 | 0.00 | 79 | 1009.4 |
| 20260506104518 | 63 | 163 | 5.0 | 11.0 | 0.00 | 0.00 | 0.00 | 79 | 1009.2 |
| 20260506103009 | 63 | 148 | 6.0 | 12.0 | 0.00 | 0.00 | 0.00 | 78 | 1009.0 |
| 20260506101511 | 63 | 161 | 6.0 | 12.0 | 0.00 | 0.00 | 0.00 | 78 | 1009.0 |
| 20260506100012 | 63 | 165 | 4.0 | 11.0 | 0.00 | 0.00 | 0.00 | 77 | 1009.0 |
| 20260506094508 | 63 | 179 | 6.0 | 11.0 | 0.00 | 0.00 | 0.00 | 76 | 1009.0 |
| 20260506093013 | 64 | 172 | 5.0 | 10.0 | 0.00 | 0.00 | 0.00 | 75 | 1009.0 |
| 20260506091508 | 64 | 157 | 6.0 | 14.0 | 0.00 | 0.00 | 0.00 | 74 | 1009.1 |
| 20260506090008 | 64 | 154 | 7.0 | 11.0 | 0.00 | 0.00 | 0.00 | 73 | 1009.3 |
| 20260506084518 | 64 | 150 | 7.0 | 12.0 | 0.00 | 0.00 | 0.00 | 72 | 1009.3 |
| 20260506081510 | 65 | 161 | 6.0 | 12.0 | 0.00 | 0.00 | 0.00 | 70 | 1009.3 |
| 20260506073015 | 66 | 169 | 5.0 | 10.0 | 0.00 | 0.00 | 0.00 | 67 | 1009.5 |
| 20260506071511 | 67 | 164 | 4.0 | 8.0 | 0.00 | 0.00 | 0.00 | 66 | 1009.6 |
| 20260506061520 | 68 | 161 | 8.0 | 13.0 | 0.00 | 0.00 | 0.00 | 62 | 1010.1 |
| 20260506044527 | 68 | 168 | 8.0 | 14.0 | 0.00 | 0.00 | 0.00 | 59 | 1010.6 |
| 20260506043006 | 68 | 159 | 7.0 | 11.0 | 0.00 | 0.00 | 0.00 | 57 | 1010.6 |
| 20260506041506 | 68 | 177 | 6.0 | 12.0 | 0.00 | 0.00 | 0.00 | 56 | 1010.6 |